createdAt,value
2017-08-22T00:00:32.067Z,1016.04
2017-08-22T00:01:32.228Z,1016.05
2017-08-22T00:02:32.183Z,1016.06
2017-08-22T00:03:33.165Z,1016.05
2017-08-22T00:04:34.654Z,1016.04
2017-08-22T00:05:28.279Z,1016.07
2017-08-22T00:06:28.216Z,1016.09
2017-08-22T00:07:23.242Z,1016.12
2017-08-22T00:08:18.328Z,1016.10
2017-08-22T00:09:18.720Z,1016.09
2017-08-22T00:10:13.341Z,1016.12
2017-08-22T00:11:08.450Z,1016.15
2017-08-22T00:12:08.676Z,1016.13
2017-08-22T00:13:03.427Z,1016.18
2017-08-22T00:14:03.475Z,1016.18
2017-08-22T00:15:03.615Z,1016.17
2017-08-22T00:16:03.594Z,1016.23
2017-08-22T00:16:57.877Z,1016.23
2017-08-22T00:17:57.640Z,1016.22
2017-08-22T00:18:52.701Z,1016.21
2017-08-22T00:19:48.137Z,1016.20
2017-08-22T00:20:49.085Z,1016.19
2017-08-22T00:21:48.793Z,1016.20
2017-08-22T00:22:48.855Z,1016.19
2017-08-22T00:23:43.799Z,1016.19
2017-08-22T00:24:44.210Z,1016.16
2017-08-22T00:25:44.033Z,1016.18
2017-08-22T00:26:38.063Z,1016.17
2017-08-22T00:27:37.962Z,1016.14
2017-08-22T00:28:33.056Z,1016.15
2017-08-22T00:29:33.481Z,1016.12
2017-08-22T00:30:27.117Z,1016.13
2017-08-22T00:31:27.160Z,1016.08
2017-08-22T00:32:22.187Z,1016.09
2017-08-22T00:33:22.193Z,1016.09
2017-08-22T00:34:22.227Z,1016.10
2017-08-22T00:35:22.261Z,1016.07
2017-08-22T00:36:16.294Z,1016.09
2017-08-22T00:37:16.281Z,1016.10
2017-08-22T00:38:11.530Z,1016.11
2017-08-22T00:39:06.480Z,1016.10
2017-08-22T00:40:06.443Z,1016.10
2017-08-22T00:41:01.536Z,1016.11
2017-08-22T00:41:56.495Z,1016.13
2017-08-22T00:42:57.403Z,1016.11
2017-08-22T00:43:57.564Z,1016.09
2017-08-22T00:44:58.041Z,1016.16
2017-08-22T00:45:52.582Z,1016.14
2017-08-22T00:46:46.713Z,1016.15
2017-08-22T00:47:46.626Z,1016.13
2017-08-22T00:48:41.700Z,1016.15
2017-08-22T00:49:41.764Z,1016.16
2017-08-22T00:50:35.804Z,1016.19
2017-08-22T00:51:35.941Z,1016.16
2017-08-22T00:52:30.834Z,1016.23
2017-08-22T00:53:25.904Z,1016.23
2017-08-22T00:54:27.139Z,1016.26
2017-08-22T00:55:27.025Z,1016.28
2017-08-22T00:56:22.023Z,1016.26
2017-08-22T00:57:21.936Z,1016.30
2017-08-22T00:58:16.123Z,1016.31
2017-08-22T00:59:17.408Z,1016.32
2017-08-22T01:00:17.029Z,1016.26
2017-08-22T01:01:12.180Z,1016.29
2017-08-22T01:02:12.561Z,1016.28
2017-08-22T01:03:12.637Z,1016.27
2017-08-22T01:04:12.650Z,1016.24
2017-08-22T01:05:06.204Z,1016.26
2017-08-22T01:06:06.583Z,1016.24
2017-08-22T01:07:01.396Z,1016.25
2017-08-22T01:08:01.432Z,1016.24
2017-08-22T01:08:55.379Z,1016.26
2017-08-22T01:09:55.794Z,1016.21
2017-08-22T01:10:50.514Z,1016.24
2017-08-22T01:11:45.451Z,1016.22
2017-08-22T01:12:45.515Z,1016.27
2017-08-22T01:13:40.621Z,1016.25
2017-08-22T01:14:40.625Z,1016.28
2017-08-22T01:15:40.637Z,1016.28
2017-08-22T01:16:40.659Z,1016.24
2017-08-22T01:17:34.690Z,1016.25
2017-08-22T01:18:34.704Z,1016.22
2017-08-22T01:19:29.775Z,1016.25
2017-08-22T01:20:29.784Z,1016.24
2017-08-22T01:21:29.821Z,1016.31
2017-08-22T01:22:29.812Z,1016.31
2017-08-22T01:23:29.937Z,1016.34
2017-08-22T01:24:29.930Z,1016.29
2017-08-22T01:25:23.905Z,1016.31
2017-08-22T01:26:23.986Z,1016.31
2017-08-22T01:27:19.033Z,1016.32
2017-08-22T01:28:14.116Z,1016.24
2017-08-22T01:29:15.471Z,1016.23
2017-08-22T01:30:15.149Z,1016.26
2017-08-22T01:31:15.154Z,1016.23
2017-08-22T01:32:10.170Z,1016.22
2017-08-22T01:33:04.214Z,1016.23
2017-08-22T01:34:05.325Z,1016.19
2017-08-22T01:35:05.248Z,1016.18
2017-08-22T01:36:05.309Z,1016.12
2017-08-22T01:37:00.347Z,1016.12
2017-08-22T01:37:54.341Z,1016.07
2017-08-22T01:38:54.419Z,1016.06
2017-08-22T01:39:49.839Z,1016.04
2017-08-22T01:40:44.484Z,1016.08
2017-08-22T01:41:45.529Z,1016.08
2017-08-22T01:42:45.539Z,1016.09
2017-08-22T01:43:45.567Z,1016.12
2017-08-22T01:44:41.038Z,1016.13
2017-08-22T01:45:34.591Z,1016.15
2017-08-22T01:46:34.653Z,1016.13
2017-08-22T01:47:29.770Z,1016.18
2017-08-22T01:48:29.779Z,1016.19
2017-08-22T01:49:24.142Z,1016.20
2017-08-22T01:50:24.828Z,1016.16
2017-08-22T01:51:25.941Z,1016.15
2017-08-22T01:52:20.874Z,1016.15
2017-08-22T01:53:15.055Z,1016.14
2017-08-22T01:54:15.214Z,1016.13
2017-08-22T01:55:09.978Z,1016.15
2017-08-22T01:56:10.028Z,1016.18
2017-08-22T01:57:04.073Z,1016.12
2017-08-22T01:58:04.061Z,1016.11
2017-08-22T01:58:59.217Z,1016.07
2017-08-22T01:59:54.537Z,1016.03
2017-08-22T02:00:54.309Z,1016.02
2017-08-22T02:01:49.146Z,1016.05
2017-08-22T02:02:44.201Z,1016.02
2017-08-22T02:03:44.352Z,1016.05
2017-08-22T02:04:39.472Z,1015.99
2017-08-22T02:05:34.394Z,1015.99
2017-08-22T02:06:35.428Z,1016.00
2017-08-22T02:07:35.419Z,1015.98
2017-08-22T02:08:35.427Z,1015.97
2017-08-22T02:09:30.532Z,1015.94
2017-08-22T02:10:30.586Z,1015.95
2017-08-22T02:11:30.578Z,1015.95
2017-08-22T02:12:24.579Z,1015.94
2017-08-22T02:13:24.588Z,1015.96
2017-08-22T02:14:19.699Z,1015.98
2017-08-22T02:15:19.700Z,1015.97
2017-08-22T02:16:13.772Z,1015.93
2017-08-22T02:17:13.795Z,1015.95
2017-08-22T02:18:08.808Z,1015.91
2017-08-22T02:19:03.854Z,1015.93
2017-08-22T02:20:03.796Z,1015.94
2017-08-22T02:20:58.933Z,1015.94
2017-08-22T02:21:53.913Z,1015.91
2017-08-22T02:22:54.902Z,1015.97
2017-08-22T02:23:55.040Z,1015.97
2017-08-22T02:24:55.487Z,1015.95
2017-08-22T02:25:50.109Z,1015.96
2017-08-22T02:26:43.986Z,1015.95
2017-08-22T02:27:44.220Z,1015.96
2017-08-22T02:28:39.232Z,1015.99
2017-08-22T02:29:39.182Z,1015.99
2017-08-22T02:30:33.186Z,1016.03
2017-08-22T02:31:33.248Z,1015.99
2017-08-22T02:32:28.314Z,1015.96
2017-08-22T02:33:23.309Z,1015.93
2017-08-22T02:34:23.374Z,1015.96
2017-08-22T02:35:18.441Z,1015.95
2017-08-22T02:36:13.427Z,1015.97
2017-08-22T02:37:14.414Z,1015.96
2017-08-22T02:38:14.468Z,1015.93
2017-08-22T02:39:14.984Z,1015.96
2017-08-22T02:40:09.607Z,1015.94
2017-08-22T02:41:03.694Z,1015.97
2017-08-22T02:42:03.654Z,1015.99
2017-08-22T02:42:58.665Z,1015.95
2017-08-22T02:43:58.694Z,1016.00
2017-08-22T02:44:52.769Z,1015.98
2017-08-22T02:45:52.685Z,1015.97
2017-08-22T02:46:47.739Z,1016.02
2017-08-22T02:47:42.908Z,1016.00
2017-08-22T02:48:42.843Z,1016.01
2017-08-22T02:49:38.367Z,1015.97
2017-08-22T02:50:32.959Z,1016.00
2017-08-22T02:51:38.922Z,1015.94
2017-08-22T02:52:32.995Z,1015.98
2017-08-22T02:53:33.003Z,1015.99
2017-08-22T02:54:28.501Z,1016.02
2017-08-22T02:55:28.048Z,1016.01
2017-08-22T02:56:22.402Z,1016.00
2017-08-22T02:57:22.132Z,1016.02
2017-08-22T02:58:17.175Z,1016.02
2017-08-22T02:59:12.658Z,1016.01
2017-08-22T03:00:12.617Z,1016.01
2017-08-22T03:01:07.302Z,1015.98
2017-08-22T03:02:02.365Z,1016.01
2017-08-22T03:03:03.421Z,1015.96
2017-08-22T03:04:03.372Z,1015.98
2017-08-22T03:04:58.905Z,1015.96
2017-08-22T03:05:58.473Z,1015.99
2017-08-22T03:06:52.534Z,1015.96
2017-08-22T03:07:52.559Z,1015.94
2017-08-22T03:08:47.604Z,1015.99
2017-08-22T03:09:42.635Z,1015.95
2017-08-22T03:10:42.754Z,1015.94
2017-08-22T03:11:37.711Z,1015.93
2017-08-22T03:12:32.717Z,1015.98
2017-08-22T03:13:32.822Z,1015.95
2017-08-22T03:14:27.973Z,1015.95
2017-08-22T03:15:22.726Z,1015.99
2017-08-22T03:16:23.838Z,1015.95
2017-08-22T03:17:23.890Z,1015.95
2017-08-22T03:18:23.856Z,1015.96
2017-08-22T03:19:19.205Z,1015.96
2017-08-22T03:20:12.960Z,1015.94
2017-08-22T03:21:13.068Z,1015.96
2017-08-22T03:22:08.033Z,1015.93
2017-08-22T03:23:07.992Z,1015.95
2017-08-22T03:24:02.081Z,1015.98
2017-08-22T03:25:02.260Z,1015.96
2017-08-22T03:25:57.193Z,1016.00
2017-08-22T03:26:52.185Z,1015.99
2017-08-22T03:27:52.240Z,1016.02
2017-08-22T03:28:47.303Z,1015.96
2017-08-22T03:29:41.648Z,1015.98
2017-08-22T03:30:41.410Z,1016.01
2017-08-22T03:31:41.367Z,1016.02
2017-08-22T03:32:36.415Z,1016.01
2017-08-22T03:33:30.442Z,1016.02
2017-08-22T03:34:25.848Z,1015.99
2017-08-22T03:35:13.594Z,1015.97
2017-08-22T03:36:08.505Z,1015.94
2017-08-22T03:36:57.237Z,1015.90
2017-08-22T03:37:45.754Z,1015.93
2017-08-22T03:38:39.850Z,1015.93
2017-08-22T03:39:34.129Z,1015.95
2017-08-22T03:40:29.022Z,1015.94
2017-08-22T03:41:29.029Z,1015.93
2017-08-22T03:42:22.801Z,1015.94
2017-08-22T03:43:24.107Z,1015.90
2017-08-22T03:44:19.291Z,1015.91
2017-08-22T03:45:08.128Z,1015.89
2017-08-22T03:46:08.137Z,1015.93
2017-08-22T03:47:03.453Z,1015.88
2017-08-22T03:47:57.990Z,1015.89
2017-08-22T03:48:58.021Z,1015.90
2017-08-22T03:49:53.521Z,1015.91
2017-08-22T03:50:48.525Z,1015.90
2017-08-22T03:51:48.619Z,1015.91
2017-08-22T03:52:43.569Z,1015.91
2017-08-22T03:53:38.684Z,1015.89
2017-08-22T03:54:39.769Z,1015.87
2017-08-22T03:55:39.693Z,1015.92
2017-08-22T03:56:39.750Z,1015.94
2017-08-22T03:57:34.739Z,1015.92
2017-08-22T03:58:34.772Z,1015.92
2017-08-22T03:59:34.855Z,1015.92
2017-08-22T04:00:28.953Z,1015.92
2017-08-22T04:01:28.880Z,1015.90
2017-08-22T04:02:23.933Z,1015.90
2017-08-22T04:03:23.940Z,1015.91
2017-08-22T04:04:18.101Z,1015.90
2017-08-22T04:05:18.013Z,1015.94
2017-08-22T04:06:13.048Z,1015.89
2017-08-22T04:07:08.054Z,1015.91
2017-08-22T04:08:08.124Z,1015.93
2017-08-22T04:09:03.116Z,1015.91
2017-08-22T04:09:58.202Z,1015.94
2017-08-22T04:10:58.179Z,1015.91
2017-08-22T04:11:53.284Z,1015.90
2017-08-22T04:12:48.261Z,1015.93
2017-08-22T04:13:48.345Z,1015.90
2017-08-22T04:14:43.383Z,1015.90
2017-08-22T04:15:38.458Z,1015.87
2017-08-22T04:16:32.357Z,1015.90
2017-08-22T04:17:33.501Z,1015.89
2017-08-22T04:18:28.457Z,1015.92
2017-08-22T04:19:22.642Z,1015.90
2017-08-22T04:20:22.665Z,1015.90
2017-08-22T04:21:17.680Z,1015.90
2017-08-22T04:22:12.610Z,1015.89
2017-08-22T04:23:12.609Z,1015.86
2017-08-22T04:24:07.713Z,1015.87
2017-08-22T04:25:07.570Z,1015.87
2017-08-22T04:26:08.785Z,1015.92
2017-08-22T04:27:08.452Z,1015.91
2017-08-22T04:28:08.488Z,1015.90
2017-08-22T04:29:02.488Z,1015.90
2017-08-22T04:30:02.484Z,1015.91
2017-08-22T04:30:57.531Z,1015.88
2017-08-22T04:31:52.591Z,1015.84
2017-08-22T04:32:46.588Z,1015.89
2017-08-22T04:33:46.688Z,1015.88
2017-08-22T04:34:41.637Z,1015.87
2017-08-22T04:35:36.664Z,1015.90
2017-08-22T04:36:36.811Z,1015.84
2017-08-22T04:37:31.848Z,1015.84
2017-08-22T04:38:26.863Z,1015.85
2017-08-22T04:39:20.836Z,1015.86
2017-08-22T04:40:21.878Z,1015.88
2017-08-22T04:41:16.850Z,1015.88
2017-08-22T04:42:17.015Z,1015.90
2017-08-22T04:43:16.963Z,1015.92
2017-08-22T04:44:17.523Z,1015.92
2017-08-22T04:45:17.055Z,1015.97
2017-08-22T04:46:17.001Z,1015.95
2017-08-22T04:47:17.102Z,1015.93
2017-08-22T04:48:17.174Z,1015.96
2017-08-22T04:49:17.704Z,1015.98
2017-08-22T04:50:17.208Z,1015.95
2017-08-22T04:51:17.305Z,1015.99
2017-08-22T04:52:17.285Z,1015.98
2017-08-22T04:53:17.386Z,1015.99
2017-08-22T04:54:17.816Z,1016.00
2017-08-22T04:55:17.481Z,1015.99
2017-08-22T04:56:17.469Z,1015.99
2017-08-22T04:57:23.458Z,1015.96
2017-08-22T04:58:18.452Z,1015.94
2017-08-22T04:59:12.472Z,1015.95
2017-08-22T05:00:12.570Z,1015.97
2017-08-22T05:01:07.461Z,1015.98
2017-08-22T05:02:07.647Z,1015.98
2017-08-22T05:03:08.724Z,1016.01
2017-08-22T05:04:08.713Z,1015.97
2017-08-22T05:05:08.878Z,1015.97
2017-08-22T05:06:08.731Z,1015.95
2017-08-22T05:07:08.823Z,1016.00
2017-08-22T05:08:08.775Z,1016.02
2017-08-22T05:09:08.938Z,1015.99
2017-08-22T05:10:08.893Z,1016.03
2017-08-22T05:11:08.923Z,1016.01
2017-08-22T05:12:09.103Z,1016.00
2017-08-22T05:13:08.980Z,1015.99
2017-08-22T05:14:08.973Z,1015.97
2017-08-22T05:15:15.095Z,1016.00
2017-08-22T05:16:15.076Z,1015.98
2017-08-22T05:17:16.249Z,1015.96
2017-08-22T05:18:17.170Z,1015.95
2017-08-22T05:19:17.858Z,1015.95
2017-08-22T05:20:12.219Z,1015.99
2017-08-22T05:21:13.236Z,1015.97
2017-08-22T05:22:13.529Z,1015.93
2017-08-22T05:23:08.398Z,1015.96
2017-08-22T05:24:03.370Z,1015.87
2017-08-22T05:25:04.367Z,1015.91
2017-08-22T05:26:04.506Z,1015.89
2017-08-22T05:26:59.375Z,1015.89
2017-08-22T05:27:54.422Z,1015.89
2017-08-22T05:28:54.651Z,1015.96
2017-08-22T05:29:49.576Z,1015.94
2017-08-22T05:30:44.551Z,1015.95
2017-08-22T05:31:38.660Z,1015.96
2017-08-22T05:32:38.756Z,1015.98
2017-08-22T05:33:33.742Z,1016.01
2017-08-22T05:34:33.869Z,1015.99
2017-08-22T05:35:33.898Z,1016.00
2017-08-22T05:36:33.782Z,1015.98
2017-08-22T05:37:28.017Z,1016.01
2017-08-22T05:38:27.852Z,1016.02
2017-08-22T05:39:22.921Z,1016.00
2017-08-22T05:40:18.076Z,1016.03
2017-08-22T05:41:12.032Z,1016.00
2017-08-22T05:42:12.421Z,1015.99
2017-08-22T05:43:07.061Z,1016.01
2017-08-22T05:44:07.485Z,1016.00
2017-08-22T05:45:08.139Z,1015.97
2017-08-22T05:46:08.643Z,1015.96
2017-08-22T05:47:08.564Z,1015.94
2017-08-22T05:48:08.642Z,1016.00
2017-08-22T05:49:08.607Z,1016.00
2017-08-22T05:50:08.225Z,1015.95
2017-08-22T05:51:08.629Z,1015.96
2017-08-22T05:52:08.824Z,1015.99
2017-08-22T05:53:08.427Z,1016.00
2017-08-22T05:54:08.546Z,1016.02
2017-08-22T05:55:08.457Z,1016.03
2017-08-22T05:56:08.480Z,1016.03
2017-08-22T05:57:14.632Z,1016.09
2017-08-22T05:58:09.716Z,1016.12
2017-08-22T05:59:03.823Z,1016.08
2017-08-22T06:00:04.082Z,1016.12
2017-08-22T06:00:58.812Z,1016.13
2017-08-22T06:01:53.914Z,1016.13
2017-08-22T06:02:54.229Z,1016.13
2017-08-22T06:03:49.233Z,1016.12
2017-08-22T06:04:44.088Z,1016.12
2017-08-22T06:05:43.919Z,1016.15
2017-08-22T06:06:44.181Z,1016.17
2017-08-22T06:07:38.350Z,1016.19
2017-08-22T06:08:38.149Z,1016.17
2017-08-22T06:09:33.507Z,1016.16
2017-08-22T06:10:33.536Z,1016.16
2017-08-22T06:11:33.428Z,1016.13
2017-08-22T06:12:33.536Z,1016.15
2017-08-22T06:13:33.610Z,1016.16
2017-08-22T06:14:33.200Z,1016.11
2017-08-22T06:15:27.558Z,1016.09
2017-08-22T06:16:27.620Z,1016.08
2017-08-22T06:17:22.417Z,1016.10
2017-08-22T06:18:17.312Z,1016.05
2017-08-22T06:19:17.928Z,1016.06
2017-08-22T06:20:17.533Z,1016.05
2017-08-22T06:21:11.911Z,1016.00
2017-08-22T06:22:11.663Z,1016.01
2017-08-22T06:23:06.952Z,1016.03
2017-08-22T06:24:01.642Z,1016.05
2017-08-22T06:24:55.997Z,1016.03
2017-08-22T06:25:56.832Z,1016.02
2017-08-22T06:26:56.932Z,1016.02
2017-08-22T06:27:57.060Z,1016.01
2017-08-22T06:28:56.987Z,1015.97
2017-08-22T06:29:57.117Z,1016.02
2017-08-22T06:30:58.285Z,1016.00
2017-08-22T06:31:53.086Z,1016.02
2017-08-22T06:32:47.198Z,1016.01
2017-08-22T06:33:47.333Z,1016.09
2017-08-22T06:34:42.377Z,1016.03
2017-08-22T06:35:37.356Z,1016.07
2017-08-22T06:36:32.519Z,1016.04
2017-08-22T06:37:38.602Z,1016.05
2017-08-22T06:38:33.597Z,1016.01
2017-08-22T06:39:27.607Z,1015.99
2017-08-22T06:40:22.687Z,1016.01
2017-08-22T06:41:10.751Z,1015.97
2017-08-22T06:42:10.744Z,1016.05
2017-08-22T06:43:05.764Z,1016.04
2017-08-22T06:44:05.875Z,1016.04
2017-08-22T06:45:00.900Z,1016.00
2017-08-22T06:45:49.952Z,1016.02
2017-08-22T06:46:39.008Z,1016.03
2017-08-22T06:47:33.098Z,1016.06
2017-08-22T06:48:21.119Z,1016.07
2017-08-22T06:49:09.852Z,1016.03
2017-08-22T06:50:03.806Z,1016.06
2017-08-22T06:50:57.938Z,1016.11
2017-08-22T06:51:53.316Z,1016.11
2017-08-22T06:52:53.196Z,1016.11
2017-08-22T06:53:46.988Z,1016.12
2017-08-22T06:54:47.316Z,1016.10
2017-08-22T06:55:41.473Z,1016.09
2017-08-22T06:56:30.556Z,1016.11
2017-08-22T06:57:25.552Z,1016.12
2017-08-22T06:58:13.705Z,1016.13
2017-08-22T06:59:07.611Z,1016.15
2017-08-22T06:59:56.530Z,1016.16
2017-08-22T07:00:44.831Z,1016.18
2017-08-22T07:01:33.814Z,1016.17
2017-08-22T07:02:21.771Z,1016.21
2017-08-22T07:03:10.016Z,1016.19
2017-08-22T07:04:03.997Z,1016.20
2017-08-22T07:04:58.038Z,1016.18
2017-08-22T07:05:45.684Z,1016.22
2017-08-22T07:06:39.783Z,1016.20
2017-08-22T07:07:40.055Z,1016.18
2017-08-22T07:08:33.881Z,1016.19
2017-08-22T07:09:23.451Z,1016.18
2017-08-22T07:10:12.231Z,1016.24
2017-08-22T07:11:06.139Z,1016.23
2017-08-22T07:12:00.238Z,1016.24
2017-08-22T07:12:49.518Z,1016.23
2017-08-22T07:13:38.402Z,1016.24
2017-08-22T07:14:38.473Z,1016.29
2017-08-22T07:15:32.543Z,1016.29
2017-08-22T07:16:26.573Z,1016.31
2017-08-22T07:17:21.562Z,1016.28
2017-08-22T07:18:15.363Z,1016.28
2017-08-22T07:19:15.375Z,1016.28
2017-08-22T07:20:04.898Z,1016.28
2017-08-22T07:20:53.814Z,1016.30
2017-08-22T07:21:41.931Z,1016.34
2017-08-22T07:22:36.967Z,1016.27
2017-08-22T07:23:36.908Z,1016.26
2017-08-22T07:24:31.906Z,1016.30
2017-08-22T07:25:31.688Z,1016.28
2017-08-22T07:26:27.014Z,1016.26
2017-08-22T07:27:21.810Z,1016.24
2017-08-22T07:28:16.222Z,1016.25
2017-08-22T07:29:15.814Z,1016.28
2017-08-22T07:30:05.158Z,1016.31
2017-08-22T07:30:53.334Z,1016.30
2017-08-22T07:31:52.927Z,1016.32
2017-08-22T07:32:47.563Z,1016.29
2017-08-22T07:33:42.217Z,1016.28
2017-08-22T07:34:42.497Z,1016.31
2017-08-22T07:35:37.585Z,1016.30
2017-08-22T07:36:31.378Z,1016.31
2017-08-22T07:37:26.651Z,1016.30
2017-08-22T07:38:20.373Z,1016.30
2017-08-22T07:39:20.964Z,1016.25
2017-08-22T07:40:14.813Z,1016.26
2017-08-22T07:41:09.834Z,1016.22
2017-08-22T07:42:10.033Z,1016.24
2017-08-22T07:43:04.975Z,1016.25
2017-08-22T07:43:58.975Z,1016.26
2017-08-22T07:44:59.045Z,1016.27
2017-08-22T07:45:54.109Z,1016.23
2017-08-22T07:46:43.185Z,1016.29
2017-08-22T07:47:37.210Z,1016.29
2017-08-22T07:48:31.150Z,1016.28
2017-08-22T07:49:19.359Z,1016.26
2017-08-22T07:50:13.413Z,1016.27
2017-08-22T07:51:01.354Z,1016.30
2017-08-22T07:51:56.337Z,1016.26
2017-08-22T07:52:56.526Z,1016.28
2017-08-22T07:53:45.621Z,1016.27
2017-08-22T07:54:35.103Z,1016.28
2017-08-22T07:55:35.694Z,1016.26
2017-08-22T07:56:29.695Z,1016.29
2017-08-22T07:57:17.767Z,1016.29
2017-08-22T07:58:06.888Z,1016.27
2017-08-22T07:59:06.948Z,1016.26
2017-08-22T07:59:55.986Z,1016.27
2017-08-22T08:00:44.998Z,1016.27
2017-08-22T08:01:34.104Z,1016.27
2017-08-22T08:02:23.167Z,1016.27
2017-08-22T08:03:17.095Z,1016.23
2017-08-22T08:04:17.147Z,1016.25
2017-08-22T08:05:06.322Z,1016.25
2017-08-22T08:06:06.220Z,1016.29
2017-08-22T08:06:55.365Z,1016.31
2017-08-22T08:07:44.353Z,1016.31
2017-08-22T08:08:32.446Z,1016.30
2017-08-22T08:09:32.485Z,1016.32
2017-08-22T08:10:21.601Z,1016.28
2017-08-22T08:11:15.610Z,1016.30
2017-08-22T08:12:04.666Z,1016.33
2017-08-22T08:12:59.723Z,1016.29
2017-08-22T08:14:00.858Z,1016.29
2017-08-22T08:14:48.960Z,1016.30
2017-08-22T08:15:36.892Z,1016.25
2017-08-22T08:16:25.941Z,1016.22
2017-08-22T08:17:15.025Z,1016.28
2017-08-22T08:18:09.090Z,1016.23
2017-08-22T08:18:58.096Z,1016.23
2017-08-22T08:19:52.112Z,1016.26
2017-08-22T08:20:40.143Z,1016.24
2017-08-22T08:21:40.281Z,1016.21
2017-08-22T08:22:35.252Z,1016.24
2017-08-22T08:23:35.358Z,1016.20
2017-08-22T08:24:30.315Z,1016.21
2017-08-22T08:25:24.392Z,1016.25
2017-08-22T08:26:19.522Z,1016.28
2017-08-22T08:27:07.487Z,1016.19
2017-08-22T08:28:01.591Z,1016.19
2017-08-22T08:28:55.593Z,1016.22
2017-08-22T08:29:55.786Z,1016.24
2017-08-22T08:30:49.866Z,1016.20
2017-08-22T08:31:43.880Z,1016.19
2017-08-22T08:32:32.921Z,1016.21
2017-08-22T08:33:28.043Z,1016.17
2017-08-22T08:34:17.092Z,1016.20
2017-08-22T08:35:12.090Z,1016.15
2017-08-22T08:36:00.068Z,1016.17
2017-08-22T08:36:55.152Z,1016.15
2017-08-22T08:37:50.257Z,1016.13
2017-08-22T08:38:38.318Z,1016.11
2017-08-22T08:39:32.444Z,1016.13
2017-08-22T08:40:27.415Z,1016.08
2017-08-22T08:41:16.465Z,1016.08
2017-08-22T08:42:11.549Z,1016.09
2017-08-22T08:43:11.583Z,1016.16
2017-08-22T08:44:06.618Z,1016.09
2017-08-22T08:45:00.672Z,1016.11
2017-08-22T08:45:55.773Z,1016.14
2017-08-22T08:46:50.868Z,1016.15
2017-08-22T08:47:38.877Z,1016.12
2017-08-22T08:48:27.938Z,1016.14
2017-08-22T08:49:22.106Z,1016.12
2017-08-22T08:50:17.019Z,1016.09
2017-08-22T08:51:17.069Z,1016.09
2017-08-22T08:52:11.194Z,1016.13
2017-08-22T08:53:11.170Z,1016.05
2017-08-22T08:54:00.231Z,1016.11
2017-08-22T08:54:49.344Z,1016.10
2017-08-22T08:55:38.333Z,1016.02
2017-08-22T08:56:32.514Z,1016.04
2017-08-22T08:57:27.528Z,1016.03
2017-08-22T08:58:16.553Z,1016.06
2017-08-22T08:59:11.623Z,1016.06
2017-08-22T09:00:05.670Z,1016.04
2017-08-22T09:00:59.757Z,1016.04
2017-08-22T09:01:53.776Z,1016.02
2017-08-22T09:02:47.826Z,1015.97
2017-08-22T09:03:42.880Z,1015.97
2017-08-22T09:04:36.998Z,1015.98
2017-08-22T09:05:37.003Z,1015.95
2017-08-22T09:06:31.018Z,1015.95
2017-08-22T09:07:32.152Z,1015.97
2017-08-22T09:08:21.142Z,1015.98
2017-08-22T09:09:16.235Z,1015.97
2017-08-22T09:10:05.288Z,1015.97
2017-08-22T09:10:53.403Z,1015.95
2017-08-22T09:11:48.418Z,1016.00
2017-08-22T09:12:43.507Z,1015.96
2017-08-22T09:13:37.711Z,1015.95
2017-08-22T09:14:26.613Z,1015.98
2017-08-22T09:15:21.692Z,1015.98
2017-08-22T09:16:21.714Z,1016.00
2017-08-22T09:17:16.767Z,1015.97
2017-08-22T09:18:16.814Z,1015.96
2017-08-22T09:19:18.126Z,1015.98
2017-08-22T09:20:18.880Z,1015.96
2017-08-22T09:21:07.971Z,1015.95
2017-08-22T09:22:01.974Z,1015.93
2017-08-22T09:23:02.126Z,1015.89
2017-08-22T09:23:56.121Z,1015.90
2017-08-22T09:24:50.322Z,1015.86
2017-08-22T09:25:38.309Z,1015.89
2017-08-22T09:26:27.386Z,1015.91
2017-08-22T09:27:15.413Z,1015.87
2017-08-22T09:28:03.422Z,1015.90
2017-08-22T09:28:57.579Z,1015.91
2017-08-22T09:29:58.557Z,1015.94
2017-08-22T09:30:58.582Z,1015.93
2017-08-22T09:31:53.637Z,1015.90
2017-08-22T09:32:41.712Z,1015.91
2017-08-22T09:33:35.797Z,1015.90
2017-08-22T09:34:30.909Z,1015.89
2017-08-22T09:35:19.010Z,1015.90
2017-08-22T09:36:20.055Z,1015.89
2017-08-22T09:37:09.101Z,1015.90
2017-08-22T09:38:03.046Z,1015.87
2017-08-22T09:38:58.232Z,1015.84
2017-08-22T09:39:59.334Z,1015.85
2017-08-22T09:40:53.230Z,1015.84
2017-08-22T09:41:48.446Z,1015.86
2017-08-22T09:42:36.383Z,1015.82
2017-08-22T09:43:25.479Z,1015.84
2017-08-22T09:44:14.599Z,1015.87
2017-08-22T09:45:09.558Z,1015.85
2017-08-22T09:45:57.658Z,1015.85
2017-08-22T09:46:45.695Z,1015.90
2017-08-22T09:47:39.757Z,1015.83
2017-08-22T09:48:28.842Z,1015.85
2017-08-22T09:49:17.835Z,1015.82
2017-08-22T09:50:17.870Z,1015.81
2017-08-22T09:51:05.986Z,1015.81
2017-08-22T09:52:00.056Z,1015.85
2017-08-22T09:52:49.153Z,1015.86
2017-08-22T09:53:43.268Z,1015.81
2017-08-22T09:54:37.305Z,1015.79
2017-08-22T09:55:26.341Z,1015.79
2017-08-22T09:56:20.446Z,1015.79
2017-08-22T09:57:15.561Z,1015.76
2017-08-22T09:58:03.534Z,1015.77
2017-08-22T09:58:58.678Z,1015.73
2017-08-22T09:59:47.717Z,1015.72
2017-08-22T10:00:36.705Z,1015.72
2017-08-22T10:01:24.782Z,1015.71
2017-08-22T10:02:24.865Z,1015.71
2017-08-22T10:03:18.903Z,1015.74
2017-08-22T10:04:18.932Z,1015.75
2017-08-22T10:05:13.032Z,1015.74
2017-08-22T10:06:08.117Z,1015.76
2017-08-22T10:06:57.167Z,1015.76
2017-08-22T10:07:46.211Z,1015.75
2017-08-22T10:08:35.339Z,1015.74
2017-08-22T10:09:29.267Z,1015.74
2017-08-22T10:10:29.418Z,1015.72
2017-08-22T10:11:18.397Z,1015.77
2017-08-22T10:12:06.490Z,1015.75
2017-08-22T10:12:55.565Z,1015.77
2017-08-22T10:13:44.584Z,1015.77
2017-08-22T10:14:33.748Z,1015.73
2017-08-22T10:15:27.737Z,1015.72
2017-08-22T10:16:16.811Z,1015.75
2017-08-22T10:17:10.801Z,1015.75
2017-08-22T10:18:10.992Z,1015.72
2017-08-22T10:19:04.954Z,1015.72
2017-08-22T10:19:59.061Z,1015.64
2017-08-22T10:20:59.134Z,1015.69
2017-08-22T10:21:47.155Z,1015.78
2017-08-22T10:22:47.310Z,1015.64
2017-08-22T10:23:36.335Z,1015.65
2017-08-22T10:24:25.460Z,1015.61
2017-08-22T10:25:19.403Z,1015.60
2017-08-22T10:26:14.489Z,1015.57
2017-08-22T10:27:02.515Z,1015.64
2017-08-22T10:27:56.689Z,1015.69
2017-08-22T10:28:50.740Z,1015.71
2017-08-22T10:29:50.783Z,1015.69
2017-08-22T10:30:50.776Z,1015.77
2017-08-22T10:31:44.870Z,1015.74
2017-08-22T10:32:38.870Z,1015.80
2017-08-22T10:33:33.079Z,1015.82
2017-08-22T10:34:21.051Z,1015.88
2017-08-22T10:35:15.075Z,1015.94
2017-08-22T10:36:04.113Z,1015.99
2017-08-22T10:36:53.242Z,1015.97
2017-08-22T10:37:48.286Z,1015.90
2017-08-22T10:38:48.289Z,1015.83
2017-08-22T10:39:43.340Z,1015.86
2017-08-22T10:40:37.426Z,1015.90
2017-08-22T10:41:25.437Z,1015.92
2017-08-22T10:42:19.480Z,1015.91
2017-08-22T10:43:07.643Z,1015.89
2017-08-22T10:44:08.678Z,1015.86
2017-08-22T10:44:56.638Z,1015.84
2017-08-22T10:45:45.723Z,1015.81
2017-08-22T10:46:40.847Z,1015.83
2017-08-22T10:47:40.898Z,1015.89
2017-08-22T10:48:29.943Z,1015.94
2017-08-22T10:49:18.996Z,1015.90
2017-08-22T10:50:07.012Z,1015.87
2017-08-22T10:51:07.126Z,1015.83
2017-08-22T10:52:01.202Z,1015.89
2017-08-22T10:53:01.190Z,1015.86
2017-08-22T10:53:56.205Z,1015.97
2017-08-22T10:54:51.387Z,1015.95
2017-08-22T10:55:46.285Z,1015.88
2017-08-22T10:56:40.456Z,1015.90
2017-08-22T10:57:29.525Z,1015.94
2017-08-22T10:58:24.532Z,1015.89
2017-08-22T10:59:19.662Z,1015.92
2017-08-22T11:00:13.735Z,1015.86
2017-08-22T11:01:02.650Z,1015.82
2017-08-22T11:01:51.782Z,1015.86
2017-08-22T11:02:46.889Z,1015.83
2017-08-22T11:03:35.957Z,1015.72
2017-08-22T11:04:31.029Z,1015.68
2017-08-22T11:05:25.075Z,1015.65
2017-08-22T11:06:19.120Z,1015.65
2017-08-22T11:07:13.198Z,1015.63
2017-08-22T11:08:07.279Z,1015.68
2017-08-22T11:09:01.404Z,1015.68
2017-08-22T11:09:55.392Z,1015.69
2017-08-22T11:10:49.444Z,1015.67
2017-08-22T11:11:43.369Z,1015.67
2017-08-22T11:12:37.518Z,1015.66
2017-08-22T11:13:38.556Z,1015.66
2017-08-22T11:14:32.746Z,1015.64
2017-08-22T11:15:21.703Z,1015.64